Time;durP1;ratioP1;P1;durP2;ratioP2;P2;SDS_P1;SDS_P2;PMS_P1;PMS_P2;Temp;Humidity;BMP_temperature;BMP_pressure;BME280_temperature;BME280_humidity;BME280_pressure;Samples;Min_cycle;Max_cycle;Signal;HPM_P1;HPM_P2
2023/07/14 00:01:24;;;;;;;3.08;1.42;;;15.30;84.00;;;;;;4974176;28;20120;-80
2023/07/14 00:03:51;;;;;;;3.13;1.30;;;15.30;84.50;;;;;;4963099;28;20031;-82
2023/07/14 00:06:17;;;;;;;3.70;1.42;;;15.20;84.70;;;;;;4972032;28;20049;-83
2023/07/14 00:08:45;;;;;;;4.18;1.40;;;15.20;84.60;;;;;;4972193;28;20037;-81
2023/07/14 00:11:16;;;;;;;4.05;1.58;;;15.20;85.10;;;;;;4962671;28;20501;-81
2023/07/14 00:13:42;;;;;;;2.28;1.10;;;15.10;85.20;;;;;;4953499;28;20031;-79
2023/07/14 00:16:15;;;;;;;2.15;1.30;;;15.10;85.20;;;;;;4963120;28;20507;-80
2023/07/14 00:18:41;;;;;;;2.85;1.20;;;15.10;85.40;;;;;;4973643;28;20135;-79
2023/07/14 00:21:17;;;;;;;3.90;1.30;;;15.00;85.10;;;;;;4962759;28;20046;-80
2023/07/14 00:23:43;;;;;;;1.70;1.00;;;15.00;85.30;;;;;;4973029;28;20074;-80
2023/07/14 00:26:15;;;;;;;2.15;1.13;;;15.00;86.00;;;;;;4972158;28;20038;-81
2023/07/14 00:28:43;;;;;;;2.28;1.58;;;14.90;86.20;;;;;;4976034;28;20050;-80
2023/07/14 00:31:14;;;;;;;1.90;1.55;;;14.90;86.10;;;;;;4958759;28;20500;-80
2023/07/14 00:33:41;;;;;;;3.42;1.60;;;14.80;86.40;;;;;;4967779;28;20317;-82
2023/07/14 00:36:07;;;;;;;6.90;1.83;;;14.80;86.90;;;;;;4957255;28;20027;-81
2023/07/14 00:38:39;;;;;;;3.30;1.67;;;14.80;86.90;;;;;;4966229;28;20043;-80
2023/07/14 00:41:18;;;;;;;3.00;1.77;;;14.70;87.00;;;;;;4967148;28;20146;-79
2023/07/14 00:43:44;;;;;;;2.97;1.58;;;14.70;87.90;;;;;;4965678;28;20061;-82
2023/07/14 00:46:31;;;;;;;2.13;1.25;;;14.70;87.20;;;;;;4963113;28;20031;-81
2023/07/14 00:49:02;;;;;;;3.05;1.42;;;14.60;86.80;;;;;;4964378;28;20036;-81
2023/07/14 00:51:35;;;;;;;3.78;1.70;;;14.60;87.10;;;;;;4960934;28;20039;-81
2023/07/14 00:54:01;;;;;;;2.92;1.13;;;14.50;86.90;;;;;;4954572;28;20086;-80
2023/07/14 00:56:47;;;;;;;2.92;1.33;;;14.50;87.20;;;;;;4972476;28;20023;-81
2023/07/14 00:59:17;;;;;;;2.67;1.45;;;14.50;87.20;;;;;;4961266;28;20036;-80
2023/07/14 01:02:10;;;;;;;1.73;1.45;;;14.40;87.20;;;;;;4958504;28;20562;-82
2023/07/14 01:04:43;;;;;;;2.03;1.40;;;14.40;87.50;;;;;;4957786;28;20023;-83
2023/07/14 01:07:11;;;;;;;3.08;1.83;;;14.40;88.40;;;;;;4981380;28;20037;-81
2023/07/14 01:09:39;;;;;;;2.85;1.15;;;14.30;87.40;;;;;;4946730;28;20050;-81
2023/07/14 01:12:07;;;;;;;2.88;1.52;;;14.20;87.50;;;;;;4976250;28;20043;-81
2023/07/14 01:14:37;;;;;;;4.03;1.63;;;14.20;87.90;;;;;;4972383;28;20110;-82
2023/07/14 01:17:04;;;;;;;2.00;1.40;;;14.20;88.20;;;;;;4959225;28;20576;-82
2023/07/14 01:19:48;;;;;;;3.35;1.27;;;14.20;88.30;;;;;;4951008;28;20050;-79
2023/07/14 01:22:19;;;;;;;2.15;1.60;;;14.10;89.30;;;;;;4968503;28;20512;-81
2023/07/14 01:25:08;;;;;;;1.73;1.25;;;14.10;89.30;;;;;;4934563;29;20054;-80
2023/07/14 01:27:34;;;;;;;4.43;1.50;;;14.10;89.60;;;;;;4970650;28;20035;-81
2023/07/14 01:30:00;;;;;;;2.50;1.45;;;14.00;90.10;;;;;;4954518;28;20031;-80
2023/07/14 01:32:42;;;;;;;2.65;1.77;;;14.00;90.20;;;;;;4963804;28;20031;-81
2023/07/14 01:35:09;;;;;;;3.22;1.65;;;14.00;90.00;;;;;;4959202;28;20031;-80
2023/07/14 01:37:37;;;;;;;2.03;1.50;;;13.90;90.00;;;;;;4974429;28;20038;-80
2023/07/14 01:40:06;;;;;;;1.45;1.35;;;13.90;90.30;;;;;;4969896;28;20070;-81
2023/07/14 01:42:33;;;;;;;3.63;1.50;;;13.80;90.30;;;;;;4969864;28;20406;-81
2023/07/14 01:44:59;;;;;;;5.80;1.60;;;13.90;90.30;;;;;;4957345;28;20027;-80
2023/07/14 01:47:25;;;;;;;2.50;1.63;;;13.80;90.60;;;;;;4972430;28;20509;-80
2023/07/14 01:49:52;;;;;;;4.05;1.73;;;13.80;90.90;;;;;;4968519;28;20449;-81
2023/07/14 01:52:29;;;;;;;3.10;1.45;;;13.80;90.80;;;;;;4967849;28;20690;-81
2023/07/14 01:55:04;;;;;;;2.70;1.70;;;13.80;90.70;;;;;;4957810;28;20035;-82
2023/07/14 01:57:33;;;;;;;1.83;1.45;;;13.80;91.00;;;;;;4960294;28;20027;-81
2023/07/14 02:00:11;;;;;;;1.80;1.38;;;13.70;90.80;;;;;;4956435;28;20038;-82
2023/07/14 02:02:44;;;;;;;1.73;1.20;;;13.70;90.80;;;;;;4936691;28;20126;-82
2023/07/14 02:05:23;;;;;;;3.05;1.35;;;13.70;90.90;;;;;;4978177;28;20031;-81
2023/07/14 02:07:50;;;;;;;1.70;1.58;;;13.60;91.20;;;;;;4940443;28;20027;-81
2023/07/14 02:10:18;;;;;;;2.45;1.40;;;13.50;91.10;;;;;;4956797;28;20083;-81
2023/07/14 02:12:46;;;;;;;1.60;1.50;;;13.50;91.40;;;;;;4955513;28;20481;-82
2023/07/14 02:15:25;;;;;;;2.38;1.52;;;13.50;91.70;;;;;;4959064;28;20059;-82
2023/07/14 02:18:15;;;;;;;3.08;1.48;;;13.40;92.00;;;;;;4957537;28;20065;-81
2023/07/14 02:20:43;;;;;;;4.47;1.80;;;13.30;92.20;;;;;;4957283;28;20081;-82
2023/07/14 02:23:14;;;;;;;1.52;1.27;;;13.30;92.30;;;;;;4960621;28;20031;-82
2023/07/14 02:25:47;;;;;;;2.05;1.70;;;13.30;92.40;;;;;;4962747;28;20093;-80
2023/07/14 02:28:14;;;;;;;2.60;1.48;;;13.30;92.70;;;;;;4966130;28;20034;-81
2023/07/14 02:30:47;;;;;;;1.92;1.58;;;13.20;92.50;;;;;;4976837;28;20512;-81
2023/07/14 02:33:24;;;;;;;2.25;1.40;;;13.20;92.60;;;;;;4958135;28;20042;-81
2023/07/14 02:35:53;;;;;;;2.70;1.52;;;13.20;92.80;;;;;;4963837;28;20038;-81
2023/07/14 02:38:19;;;;;;;2.75;1.60;;;13.20;92.70;;;;;;4957749;28;20078;-81
2023/07/14 02:41:08;;;;;;;2.70;1.65;;;13.20;92.90;;;;;;4963777;28;20031;-81
2023/07/14 02:43:34;;;;;;;3.47;1.40;;;13.20;93.20;;;;;;4952326;28;20027;-80
2023/07/14 02:46:11;;;;;;;2.55;1.60;;;13.10;93.40;;;;;;4958289;28;20046;-82
2023/07/14 02:48:43;;;;;;;3.63;1.40;;;13.10;93.50;;;;;;4966457;28;20034;-82
2023/07/14 02:51:10;;;;;;;1.60;1.50;;;13.10;93.20;;;;;;4969478;28;20037;-81
2023/07/14 02:53:36;;;;;;;2.30;1.50;;;13.10;93.00;;;;;;4979608;28;20065;-80
2023/07/14 02:56:03;;;;;;;6.43;1.77;;;13.10;93.40;;;;;;4967884;28;20441;-80
2023/07/14 02:58:49;;;;;;;1.92;1.58;;;13.00;93.60;;;;;;4963753;28;20107;-81
2023/07/14 03:01:17;;;;;;;2.55;1.75;;;13.00;94.00;;;;;;4969745;28;20525;-80
2023/07/14 03:03:45;;;;;;;5.45;1.95;;;12.90;93.90;;;;;;4964625;28;20054;-79
2023/07/14 03:06:14;;;;;;;5.55;1.52;;;12.90;94.10;;;;;;4965903;28;20612;-80
2023/07/14 03:08:40;;;;;;;1.70;1.60;;;12.90;94.10;;;;;;4962253;28;20043;-80
2023/07/14 03:11:06;;;;;;;1.90;1.77;;;12.90;94.90;;;;;;4969128;28;20053;-83
2023/07/14 03:13:34;;;;;;;4.03;1.83;;;12.80;94.40;;;;;;4964509;28;20043;-81
2023/07/14 03:16:00;;;;;;;2.83;1.60;;;12.70;94.60;;;;;;4963461;28;20055;-80
2023/07/14 03:18:26;;;;;;;3.88;2.35;;;12.70;95.00;;;;;;4967513;28;20034;-81
2023/07/14 03:21:01;;;;;;;2.55;1.67;;;12.70;95.30;;;;;;4949671;28;20106;-80
2023/07/14 03:23:27;;;;;;;3.20;1.80;;;12.70;94.80;;;;;;4949770;28;20621;-80
2023/07/14 03:25:55;;;;;;;2.03;1.70;;;12.70;94.70;;;;;;4954984;28;20035;-81
2023/07/14 03:28:21;;;;;;;3.88;1.60;;;12.70;94.80;;;;;;4954175;28;20031;-82
2023/07/14 03:30:47;;;;;;;5.20;1.88;;;12.70;95.10;;;;;;4955825;28;20030;-79
2023/07/14 03:33:13;;;;;;;4.65;2.20;;;12.60;95.70;;;;;;4955554;28;20055;-80
2023/07/14 03:35:39;;;;;;;3.33;1.63;;;12.60;95.90;;;;;;4932321;29;20075;-81
2023/07/14 03:38:04;;;;;;;2.95;1.63;;;12.50;95.70;;;;;;4959557;28;20035;-79
2023/07/14 03:40:30;;;;;;;2.17;1.75;;;12.50;96.10;;;;;;4955310;28;20169;-80
2023/07/14 03:42:56;;;;;;;2.63;1.77;;;12.50;96.40;;;;;;4951969;28;20705;-82
2023/07/14 03:45:22;;;;;;;1.95;1.75;;;12.50;96.10;;;;;;4952559;28;20050;-83
2023/07/14 03:47:49;;;;;;;2.63;1.95;;;12.50;96.30;;;;;;4957684;28;20047;-82
2023/07/14 03:50:15;;;;;;;3.42;2.03;;;12.50;96.30;;;;;;4962781;28;20027;-82
2023/07/14 03:52:43;;;;;;;2.75;1.83;;;12.50;96.20;;;;;;4955366;28;20794;-80
2023/07/14 03:55:11;;;;;;;1.70;1.60;;;12.50;96.80;;;;;;4953698;28;20023;-81
2023/07/14 03:57:36;;;;;;;2.42;2.00;;;12.50;96.90;;;;;;4965547;28;20189;-81
2023/07/14 04:00:16;;;;;;;3.40;1.73;;;12.60;97.10;;;;;;4960580;28;20075;-81
2023/07/14 04:02:45;;;;;;;1.80;1.60;;;12.60;97.30;;;;;;4962288;28;20096;-82
2023/07/14 04:05:13;;;;;;;1.52;1.42;;;12.60;98.30;;;;;;4962775;28;20031;-81
2023/07/14 04:07:41;;;;;;;3.85;1.60;;;12.70;97.70;;;;;;4968666;28;20047;-82
2023/07/14 04:10:08;;;;;;;4.40;1.70;;;12.70;97.60;;;;;;4961517;28;20038;-82
2023/07/14 04:12:35;;;;;;;4.15;1.70;;;12.70;97.70;;;;;;4969906;28;20031;-82
2023/07/14 04:15:01;;;;;;;2.22;1.98;;;12.70;97.70;;;;;;4966212;28;20030;-81
2023/07/14 04:17:29;;;;;;;1.80;1.38;;;12.80;98.10;;;;;;4956181;28;20065;-81
2023/07/14 04:19:55;;;;;;;3.63;1.77;;;12.90;98.60;;;;;;4955827;28;20397;-81
2023/07/14 04:22:21;;;;;;;2.08;1.70;;;12.90;98.30;;;;;;4947678;29;20039;-81
2023/07/14 04:24:47;;;;;;;2.13;1.60;;;13.00;98.50;;;;;;4959693;28;20033;-82
2023/07/14 04:27:13;;;;;;;4.55;1.70;;;13.00;98.90;;;;;;4962787;28;20031;-80
2023/07/14 04:29:40;;;;;;;1.90;1.70;;;13.00;98.80;;;;;;4965902;28;20046;-79
2023/07/14 04:32:06;;;;;;;1.92;1.65;;;13.10;98.60;;;;;;4970978;28;20047;-80
2023/07/14 04:34:33;;;;;;;4.47;1.83;;;13.10;98.60;;;;;;4963198;28;20051;-81
2023/07/14 04:36:59;;;;;;;2.45;2.25;;;13.20;99.10;;;;;;4963926;28;20034;-81
2023/07/14 04:39:25;;;;;;;2.97;2.08;;;13.20;99.20;;;;;;4958398;28;20500;-80
2023/07/14 04:41:52;;;;;;;2.63;1.92;;;13.30;99.30;;;;;;4969473;28;20035;-82
2023/07/14 04:44:18;;;;;;;2.30;1.90;;;13.30;99.50;;;;;;4963695;28;20050;-81
2023/07/14 04:46:45;;;;;;;4.10;1.98;;;13.40;99.40;;;;;;4970289;28;20027;-82
2023/07/14 04:49:11;;;;;;;3.30;1.60;;;13.50;99.80;;;;;;4962244;28;20035;-82
2023/07/14 04:51:38;;;;;;;2.35;1.73;;;13.50;99.90;;;;;;4966342;28;20058;-82
2023/07/14 04:54:05;;;;;;;8.65;3.95;;;13.60;99.80;;;;;;4962763;28;20059;-81
2023/07/14 04:56:34;;;;;;;8.85;3.55;;;13.70;99.10;;;;;;4964490;28;20115;-83
2023/07/14 04:59:00;;;;;;;4.65;3.03;;;13.70;99.10;;;;;;4963167;28;20038;-81
2023/07/14 05:01:27;;;;;;;3.80;2.92;;;13.70;98.90;;;;;;4967306;28;20080;-81
2023/07/14 05:03:53;;;;;;;6.18;2.35;;;13.70;98.70;;;;;;4956889;28;20067;-83
2023/07/14 05:06:20;;;;;;;4.60;2.20;;;13.80;98.80;;;;;;4959286;28;20035;-82
2023/07/14 05:08:45;;;;;;;3.72;2.67;;;13.90;98.80;;;;;;4956957;28;20043;-81
2023/07/14 05:11:11;;;;;;;3.50;2.50;;;13.90;98.80;;;;;;4967646;28;20054;-81
2023/07/14 05:13:37;;;;;;;3.28;2.97;;;13.90;99.00;;;;;;4969401;28;20043;-81
2023/07/14 05:16:03;;;;;;;4.07;2.40;;;13.90;99.60;;;;;;4958591;28;20027;-82
2023/07/14 05:18:29;;;;;;;2.50;1.70;;;14.00;99.40;;;;;;4963195;28;20027;-81
2023/07/14 05:21:00;;;;;;;3.15;2.35;;;14.20;99.50;;;;;;4963540;28;20382;-81
2023/07/14 05:23:27;;;;;;;3.00;2.03;;;14.30;99.30;;;;;;4955446;28;20039;-80
2023/07/14 05:25:53;;;;;;;2.25;2.05;;;14.50;99.20;;;;;;4961536;28;20036;-81
2023/07/14 05:28:19;;;;;;;2.17;1.75;;;14.60;98.90;;;;;;4963447;28;20457;-81
2023/07/14 05:30:45;;;;;;;2.35;1.77;;;14.80;98.60;;;;;;4966013;28;20101;-81
2023/07/14 05:33:12;;;;;;;4.25;1.70;;;15.00;98.20;;;;;;4968781;28;20477;-81
2023/07/14 05:35:39;;;;;;;2.20;2.00;;;15.20;97.60;;;;;;4963310;28;20031;-83
2023/07/14 05:38:06;;;;;;;2.97;1.50;;;15.40;97.10;;;;;;4962717;28;20124;-83
2023/07/14 05:40:32;;;;;;;5.00;1.63;;;15.70;96.60;;;;;;4960407;28;20071;-82
2023/07/14 05:42:58;;;;;;;2.00;1.80;;;15.90;95.20;;;;;;4961874;28;20039;-81
2023/07/14 05:45:24;;;;;;;4.25;3.05;;;16.20;94.80;;;;;;4958051;28;20398;-81
2023/07/14 05:47:50;;;;;;;2.95;2.00;;;16.40;94.30;;;;;;4959277;28;20048;-81
2023/07/14 05:50:16;;;;;;;3.88;2.03;;;16.60;94.10;;;;;;4962808;28;20082;-81
2023/07/14 05:52:43;;;;;;;6.50;2.10;;;16.80;92.70;;;;;;4962571;28;20094;-80
2023/07/14 05:55:09;;;;;;;5.30;2.25;;;16.70;92.00;;;;;;4962780;28;20031;-80
2023/07/14 05:57:36;;;;;;;8.18;5.55;;;16.80;91.60;;;;;;4962547;28;20035;-81
2023/07/14 06:00:13;;;;;;;3.35;1.67;;;17.00;91.50;;;;;;4954136;28;20019;-80
2023/07/14 06:02:43;;;;;;;4.13;1.77;;;17.30;90.60;;;;;;4958839;28;20049;-81
2023/07/14 06:05:10;;;;;;;2.60;1.60;;;17.60;90.30;;;;;;4957532;28;20094;-80
2023/07/14 06:07:37;;;;;;;2.30;1.60;;;17.80;89.30;;;;;;4958342;28;20039;-81
2023/07/14 06:10:05;;;;;;;3.45;1.73;;;18.10;88.40;;;;;;4955311;28;20047;-81
2023/07/14 06:12:32;;;;;;;5.07;1.70;;;18.30;86.40;;;;;;4960056;28;20027;-83
2023/07/14 06:14:58;;;;;;;3.92;2.03;;;18.50;85.10;;;;;;4963937;28;20039;-83
2023/07/14 06:17:24;;;;;;;3.85;1.58;;;18.70;83.80;;;;;;4961330;28;20047;-82
2023/07/14 06:19:49;;;;;;;3.75;2.33;;;18.80;83.20;;;;;;4962054;28;20058;-79
2023/07/14 06:22:15;;;;;;;4.70;1.75;;;18.80;83.80;;;;;;4964481;28;20043;-80
2023/07/14 06:24:41;;;;;;;5.03;2.10;;;18.90;82.30;;;;;;4967253;28;20035;-82
2023/07/14 06:27:25;;;;;;;5.05;2.30;;;19.10;83.90;;;;;;4957606;28;20536;-81
2023/07/14 06:29:51;;;;;;;4.05;2.53;;;19.20;80.00;;;;;;4959235;28;20043;-81
2023/07/14 06:32:17;;;;;;;5.57;2.08;;;19.30;82.00;;;;;;4954420;28;20031;-81
2023/07/14 06:34:43;;;;;;;4.05;2.00;;;19.10;80.20;;;;;;4960844;28;20465;-80
2023/07/14 06:37:09;;;;;;;6.03;2.20;;;19.20;82.30;;;;;;4955908;28;20111;-81
2023/07/14 06:39:35;;;;;;;5.45;2.17;;;19.30;80.90;;;;;;4960552;28;20517;-81
2023/07/14 06:42:01;;;;;;;6.18;2.15;;;19.30;81.80;;;;;;4967717;28;20122;-81
2023/07/14 06:44:26;;;;;;;8.93;2.25;;;19.40;81.10;;;;;;4960857;28;20074;-82
2023/07/14 06:46:52;;;;;;;3.72;1.90;;;19.60;81.20;;;;;;4963383;28;20039;-79
2023/07/14 06:49:18;;;;;;;7.68;2.33;;;19.90;79.80;;;;;;4967941;28;20045;-80
2023/07/14 06:51:43;;;;;;;5.18;2.10;;;20.40;77.70;;;;;;4962284;28;20039;-81
2023/07/14 06:54:09;;;;;;;3.08;2.00;;;20.70;78.20;;;;;;4958645;28;20119;-81
2023/07/14 06:56:36;;;;;;;6.80;2.65;;;21.00;75.50;;;;;;4967474;28;20046;-83
2023/07/14 06:59:02;;;;;;;7.30;4.55;;;21.20;77.20;;;;;;4960578;28;20032;-80
2023/07/14 07:01:28;;;;;;;7.50;4.72;;;21.60;75.30;;;;;;4958498;28;20042;-81
2023/07/14 07:03:53;;;;;;;3.00;1.70;;;22.00;73.10;;;;;;4962410;28;20809;-79
2023/07/14 07:06:19;;;;;;;5.07;1.35;;;22.50;68.70;;;;;;4956623;28;20028;-80
2023/07/14 07:08:46;;;;;;;4.20;1.50;;;23.00;68.80;;;;;;4953344;29;20580;-81
2023/07/14 07:11:13;;;;;;;3.92;2.13;;;23.40;69.60;;;;;;4963185;28;20058;-82
2023/07/14 07:13:39;;;;;;;6.03;1.73;;;23.70;68.50;;;;;;4965180;28;20026;-80
2023/07/14 07:16:05;;;;;;;1.60;1.50;;;24.00;65.20;;;;;;4967596;28;20105;-82
2023/07/14 07:18:31;;;;;;;3.13;1.50;;;24.20;67.40;;;;;;4962336;28;20076;-82
2023/07/14 07:20:57;;;;;;;2.15;1.08;;;24.40;63.90;;;;;;4963928;28;20504;-82
2023/07/14 07:23:23;;;;;;;2.80;1.33;;;23.80;59.60;;;;;;4962413;28;20050;-80
2023/07/14 07:25:50;;;;;;;4.80;1.38;;;23.70;62.70;;;;;;4959615;28;20058;-79
2023/07/14 07:28:18;;;;;;;3.70;1.60;;;23.80;63.20;;;;;;4952908;28;20513;-80
2023/07/14 07:30:44;;;;;;;5.45;1.20;;;23.70;61.40;;;;;;4955805;28;20023;-80
2023/07/14 07:33:10;;;;;;;4.90;1.48;;;23.80;63.50;;;;;;4952601;28;20098;-80
2023/07/14 07:35:38;;;;;;;2.90;1.35;;;23.70;62.50;;;;;;4963080;28;20023;-80
2023/07/14 07:38:04;;;;;;;4.85;1.40;;;23.50;61.20;;;;;;4960309;28;20065;-81
2023/07/14 07:40:29;;;;;;;5.38;1.40;;;23.60;61.20;;;;;;4954376;28;20031;-79
2023/07/14 07:42:55;;;;;;;3.72;1.52;;;23.70;61.80;;;;;;4965171;28;20038;-79
2023/07/14 07:45:21;;;;;;;2.60;1.20;;;23.90;60.80;;;;;;4954484;28;20032;-80
2023/07/14 07:47:47;;;;;;;2.92;1.00;;;24.10;62.10;;;;;;4954661;28;20079;-81
2023/07/14 07:50:13;;;;;;;1.98;1.10;;;24.40;61.60;;;;;;4958438;28;20405;-79
2023/07/14 07:52:39;;;;;;;2.25;1.20;;;24.40;59.20;;;;;;4967612;28;20039;-79
2023/07/14 07:55:05;;;;;;;3.55;1.08;;;24.50;57.30;;;;;;4963974;28;20031;-80
2023/07/14 07:57:32;;;;;;;4.53;1.90;;;24.30;56.80;;;;;;4975546;28;20023;-81
2023/07/14 07:59:58;;;;;;;3.47;1.73;;;24.20;59.00;;;;;;4965977;28;20041;-81
2023/07/14 08:02:24;;;;;;;5.45;1.30;;;23.70;57.50;;;;;;4964599;28;20130;-82
2023/07/14 08:04:51;;;;;;;7.75;2.53;;;23.80;60.10;;;;;;4968904;28;20031;-83
2023/07/14 08:07:17;;;;;;;6.82;2.65;;;23.80;57.80;;;;;;4961532;28;20046;-81
2023/07/14 08:09:43;;;;;;;3.55;1.35;;;24.00;58.80;;;;;;4961301;28;20044;-81
2023/07/14 08:12:09;;;;;;;4.30;1.65;;;24.00;59.50;;;;;;4962810;28;20039;-81
2023/07/14 08:14:57;;;;;;;3.92;3.53;;;24.20;57.80;;;;;;4964722;28;20031;-81
2023/07/14 08:17:25;;;;;;;1.70;1.48;;;24.40;57.00;;;;;;4961845;28;20039;-82
2023/07/14 08:19:51;;;;;;;4.18;1.17;;;24.60;57.90;;;;;;4964086;28;20034;-81
2023/07/14 08:22:17;;;;;;;2.90;1.30;;;24.70;55.30;;;;;;4971391;28;20038;-82
2023/07/14 08:24:43;;;;;;;3.70;1.48;;;24.30;55.20;;;;;;4966867;28;20039;-82
2023/07/14 08:27:09;;;;;;;2.55;0.95;;;24.00;56.30;;;;;;4966085;28;20540;-80
2023/07/14 08:29:35;;;;;;;3.30;1.27;;;24.40;56.80;;;;;;4965076;28;20035;-81
2023/07/14 08:32:00;;;;;;;1.42;1.08;;;24.20;55.40;;;;;;4961256;28;20035;-82
2023/07/14 08:34:27;;;;;;;4.22;1.38;;;24.40;56.40;;;;;;4964414;28;20031;-82
2023/07/14 08:36:53;;;;;;;0.88;0.88;;;24.20;56.80;;;;;;4968554;28;20050;-80
2023/07/14 08:39:19;;;;;;;4.35;1.15;;;24.10;57.40;;;;;;4959458;28;20042;-82
2023/07/14 08:41:46;;;;;;;2.05;1.33;;;24.50;56.70;;;;;;4961380;28;20031;-80
2023/07/14 08:44:17;;;;;;;1.88;1.45;;;24.90;55.00;;;;;;4966443;28;20086;-79
2023/07/14 08:46:58;;;;;;;1.98;0.90;;;25.20;55.20;;;;;;4955628;28;20023;-80
2023/07/14 08:49:30;;;;;;;1.27;0.80;;;25.50;55.90;;;;;;4950573;29;20653;-79
2023/07/14 08:52:03;;;;;;;1.33;0.70;;;25.60;50.30;;;;;;4963234;28;20046;-79
2023/07/14 08:54:46;;;;;;;0.85;0.80;;;25.70;51.70;;;;;;4965248;28;20346;-80
2023/07/14 08:57:19;;;;;;;1.85;0.98;;;25.90;56.60;;;;;;4960340;28;20513;-82
2023/07/14 08:59:45;;;;;;;2.95;0.80;;;26.00;56.20;;;;;;4959050;28;20038;-80
2023/07/14 09:02:57;;;;;;;2.28;0.85;;;26.20;52.00;;;;;;4968052;28;20040;-79
2023/07/14 09:05:27;;;;;;;3.03;1.50;;;26.00;47.60;;;;;;4955816;28;20057;-79
2023/07/14 09:07:54;;;;;;;1.00;0.90;;;25.10;48.50;;;;;;4955268;28;21339;-80
2023/07/14 09:10:37;;;;;;;2.25;0.90;;;25.10;50.00;;;;;;4959092;28;20046;-80
2023/07/14 09:13:32;;;;;;;1.95;0.98;;;24.80;49.70;;;;;;4950105;29;20080;-79
2023/07/14 09:15:59;;;;;;;2.25;0.90;;;24.80;49.30;;;;;;4949892;28;20028;-80
2023/07/14 09:18:48;;;;;;;3.30;0.95;;;24.80;50.70;;;;;;4950576;28;20037;-79
2023/07/14 09:21:32;;;;;;;1.73;1.00;;;25.10;53.30;;;;;;4950785;28;20123;-80
2023/07/14 09:24:11;;;;;;;2.10;1.00;;;25.40;54.80;;;;;;4947394;28;20410;-80
2023/07/14 09:26:52;;;;;;;1.83;0.90;;;25.70;50.70;;;;;;4947863;28;20062;-78
2023/07/14 09:29:41;;;;;;;2.90;1.23;;;25.80;50.90;;;;;;4949614;28;20046;-80
2023/07/14 09:32:37;;;;;;;1.48;1.35;;;25.90;50.80;;;;;;4950568;28;20031;-79
2023/07/14 09:35:23;;;;;;;;;;;25.40;47.50;;;;;;4947824;29;20510;-79
2023/07/14 09:37:54;;;;;;;4.85;1.70;;;25.30;45.10;;;;;;4951555;28;20001;-79
2023/07/14 09:40:41;;;;;;;2.13;1.65;;;25.30;46.50;;;;;;4957698;28;20434;-79
2023/07/14 09:43:10;;;;;;;1.92;1.30;;;25.20;47.10;;;;;;4951341;28;20046;-82
2023/07/14 09:45:38;;;;;;;1.80;1.38;;;25.40;48.30;;;;;;4953247;28;20039;-80
2023/07/14 09:48:15;;;;;;;1.42;1.15;;;25.60;49.20;;;;;;4951720;28;20098;-79
2023/07/14 09:51:04;;;;;;;2.47;1.10;;;25.80;50.30;;;;;;4956227;28;20038;-81
2023/07/14 09:53:36;;;;;;;1.95;0.98;;;26.00;48.90;;;;;;4950160;28;20035;-81
2023/07/14 09:56:16;;;;;;;3.70;1.45;;;26.10;49.50;;;;;;4948584;28;20390;-79
2023/07/14 09:58:52;;;;;;;2.28;1.25;;;26.20;49.50;;;;;;4948774;28;20030;-80
2023/07/14 10:01:18;;;;;;;1.30;1.10;;;26.20;50.20;;;;;;4947890;28;20517;-81
2023/07/14 10:03:51;;;;;;;1.20;0.98;;;26.20;50.00;;;;;;4960414;28;20046;-81
2023/07/14 10:06:26;;;;;;;1.88;1.48;;;26.10;47.00;;;;;;4951105;28;20621;-79
2023/07/14 10:09:13;;;;;;;2.45;1.30;;;25.60;48.10;;;;;;4949694;28;20042;-80
2023/07/14 10:11:45;;;;;;;1.85;1.00;;;25.40;49.20;;;;;;4952069;28;20039;-80
2023/07/14 10:14:27;;;;;;;3.60;1.33;;;25.30;48.10;;;;;;4964425;28;20035;-79
2023/07/14 10:16:57;;;;;;;6.25;1.20;;;25.00;47.50;;;;;;4953642;28;20032;-77
2023/07/14 10:19:33;;;;;;;3.63;0.98;;;24.90;48.10;;;;;;4953433;28;20113;-80
2023/07/14 10:22:04;;;;;;;2.88;1.00;;;24.70;49.00;;;;;;4949786;28;20421;-79
2023/07/14 10:24:31;;;;;;;1.48;1.38;;;24.80;50.30;;;;;;4957556;28;20529;-80
2023/07/14 10:27:01;;;;;;;2.25;1.40;;;24.90;50.20;;;;;;4956694;28;20027;-80
2023/07/14 10:30:02;;;;;;;2.63;1.67;;;25.00;50.00;;;;;;4954157;28;20051;-78
2023/07/14 10:32:51;;;;;;;4.38;1.25;;;25.20;48.70;;;;;;4954216;28;20501;-79
2023/07/14 10:35:25;;;;;;;6.28;1.10;;;25.00;48.60;;;;;;4949025;28;20041;-79
2023/07/14 10:38:04;;;;;;;4.95;1.35;;;24.80;48.30;;;;;;4952745;28;20031;-78
2023/07/14 10:40:36;;;;;;;1.73;1.42;;;24.60;49.20;;;;;;4953419;28;20031;-79
2023/07/14 10:43:20;;;;;;;3.13;1.17;;;24.60;50.20;;;;;;4954351;28;20043;-79
2023/07/14 10:45:50;;;;;;;2.47;1.05;;;24.70;52.40;;;;;;4955507;28;20089;-81
2023/07/14 10:48:47;;;;;;;2.05;1.05;;;24.80;52.80;;;;;;4952221;28;20058;-80
2023/07/14 10:51:25;;;;;;;1.58;1.00;;;24.90;49.20;;;;;;4958428;28;20039;-79
2023/07/14 10:54:03;;;;;;;1.38;1.20;;;24.80;50.40;;;;;;4959468;28;20912;-79
2023/07/14 10:56:38;;;;;;;4.18;1.38;;;24.90;50.60;;;;;;4956026;28;20027;-79
2023/07/14 10:59:51;;;;;;;2.13;1.35;;;25.10;51.50;;;;;;4956004;28;20039;-77
2023/07/14 11:02:41;;;;;;;2.92;0.98;;;25.20;50.40;;;;;;4958992;28;20114;-79
2023/07/14 11:05:22;;;;;;;4.18;1.60;;;25.10;50.80;;;;;;4950575;28;20147;-79
2023/07/14 11:07:48;;;;;;;2.38;1.42;;;25.30;53.30;;;;;;4949168;28;20050;-79
2023/07/14 11:10:26;;;;;;;4.07;1.80;;;25.50;49.50;;;;;;4951324;28;20038;-79
2023/07/14 11:13:04;;;;;;;1.63;0.93;;;25.10;47.90;;;;;;4954165;28;20027;-78
2023/07/14 11:15:44;;;;;;;5.25;1.55;;;25.00;49.30;;;;;;4956087;28;20039;-78
2023/07/14 11:18:30;;;;;;;3.28;1.58;;;25.00;51.10;;;;;;4949180;29;20031;-78
2023/07/14 11:21:27;;;;;;;2.58;1.00;;;25.10;51.40;;;;;;4956886;28;20042;-79
2023/07/14 11:24:17;;;;;;;3.05;1.70;;;25.30;54.20;;;;;;4949474;29;20078;-79
2023/07/14 11:27:11;;;;;;;3.28;1.30;;;25.60;52.40;;;;;;4948498;28;20031;-80
2023/07/14 11:29:52;;;;;;;3.30;1.23;;;25.80;51.70;;;;;;4952757;28;20042;-80
2023/07/14 11:32:21;;;;;;;1.90;1.20;;;25.90;53.20;;;;;;4956174;28;20067;-78
2023/07/14 11:35:01;;;;;;;2.33;1.35;;;26.10;52.70;;;;;;4950531;28;20039;-78
2023/07/14 11:37:53;;;;;;;3.42;1.38;;;26.20;49.60;;;;;;4957161;28;20066;-80
2023/07/14 11:40:22;;;;;;;2.25;1.17;;;26.20;49.00;;;;;;4948401;28;20039;-79
2023/07/14 11:42:54;;;;;;;3.05;1.30;;;26.20;49.70;;;;;;4952750;28;20497;-78
2023/07/14 11:45:24;;;;;;;1.73;1.02;;;26.20;51.80;;;;;;4955016;28;20045;-78
2023/07/14 11:47:50;;;;;;;3.40;1.50;;;26.30;51.30;;;;;;4962277;28;20066;-81
2023/07/14 11:50:19;;;;;;;3.47;1.13;;;26.20;48.10;;;;;;4956285;28;20130;-79
2023/07/14 11:53:06;;;;;;;2.28;1.17;;;26.30;51.90;;;;;;4960902;28;20139;-80
2023/07/14 11:55:36;;;;;;;2.63;1.40;;;26.50;52.70;;;;;;4957549;28;20037;-78
2023/07/14 11:58:20;;;;;;;5.30;2.05;;;26.60;48.00;;;;;;4962057;28;20131;-79
2023/07/14 12:01:17;;;;;;;1.75;1.42;;;26.50;50.10;;;;;;4963539;28;20027;-78
2023/07/14 12:03:52;;;;;;;2.13;1.20;;;26.70;51.80;;;;;;4952062;29;20044;-79
2023/07/14 12:06:23;;;;;;;4.85;1.48;;;26.80;49.10;;;;;;4959954;28;20508;-79
2023/07/14 12:09:04;;;;;;;2.85;1.15;;;26.50;46.40;;;;;;4962325;28;20030;-78
2023/07/14 12:11:53;;;;;;;3.50;1.50;;;26.30;47.20;;;;;;4959356;28;20033;-79
2023/07/14 12:14:37;;;;;;;4.60;2.00;;;26.40;47.80;;;;;;4957044;28;20121;-79
2023/07/14 12:17:37;;;;;;;3.63;1.65;;;26.20;47.10;;;;;;4960516;28;20411;-79
2023/07/14 12:20:17;;;;;;;6.22;1.25;;;26.00;47.80;;;;;;4959719;28;20118;-79
2023/07/14 12:22:53;;;;;;;2.55;1.00;;;26.20;49.60;;;;;;4957340;28;20027;-78
2023/07/14 12:25:22;;;;;;;2.47;1.27;;;26.20;50.30;;;;;;4961968;28;20034;-80
2023/07/14 12:27:54;;;;;;;2.30;1.25;;;26.30;49.30;;;;;;4964731;28;20035;-79
2023/07/14 12:30:24;;;;;;;1.10;0.90;;;26.50;50.60;;;;;;4961895;28;20529;-78
2023/07/14 12:33:03;;;;;;;1.63;1.25;;;26.90;51.10;;;;;;4960963;28;20027;-80
2023/07/14 12:35:32;;;;;;;1.80;1.10;;;26.90;50.10;;;;;;4960945;28;20342;-79
2023/07/14 12:38:13;;;;;;;4.13;1.52;;;26.80;47.10;;;;;;4969404;28;20119;-78
2023/07/14 12:40:39;;;;;;;2.35;1.50;;;26.60;45.00;;;;;;4951257;28;20039;-80
2023/07/14 12:43:07;;;;;;;3.80;1.58;;;26.40;48.50;;;;;;4947709;28;20057;-79
2023/07/14 12:45:33;;;;;;;2.15;1.20;;;26.40;49.40;;;;;;4951000;28;20027;-79
2023/07/14 12:48:02;;;;;;;3.65;1.40;;;26.30;48.20;;;;;;4952194;28;21128;-79
2023/07/14 12:50:29;;;;;;;1.92;1.50;;;26.30;46.20;;;;;;4961175;28;20095;-80
2023/07/14 12:52:56;;;;;;;2.08;1.30;;;26.30;48.50;;;;;;4966628;28;20039;-80
2023/07/14 12:55:24;;;;;;;4.22;1.60;;;26.30;50.90;;;;;;4958752;28;20024;-79
2023/07/14 12:57:51;;;;;;;3.58;1.60;;;26.40;49.80;;;;;;4952360;28;20031;-81
2023/07/14 13:00:26;;;;;;;4.07;1.73;;;26.50;53.40;;;;;;4948001;28;20038;-78
2023/07/14 13:02:54;;;;;;;2.08;1.58;;;26.50;46.90;;;;;;4950425;28;20027;-80
2023/07/14 13:05:22;;;;;;;3.70;1.73;;;26.80;50.60;;;;;;4952797;28;20022;-79
2023/07/14 13:07:54;;;;;;;4.90;2.38;;;27.00;48.50;;;;;;4959365;28;20039;-80
2023/07/14 13:10:20;;;;;;;5.60;1.58;;;27.30;49.60;;;;;;4964281;28;20039;-78